sensor_id;sensor_type;location;lat;lon;timestamp;pressure;altitude;pressure_sealevel;temperature;humidity
65010;BME280;51556;50.002;22.014;2023-02-15T00:00:26;100915.36;;;6.02;65.77
65010;BME280;51556;50.002;22.014;2023-02-15T00:02:51;100917.82;;;6.02;65.77
65010;BME280;51556;50.002;22.014;2023-02-15T00:05:16;100913.31;;;6.05;65.79
65010;BME280;51556;50.002;22.014;2023-02-15T00:07:42;100917.91;;;6.08;65.92
65010;BME280;51556;50.002;22.014;2023-02-15T00:10:07;100915.15;;;6.10;65.68
65010;BME280;51556;50.002;22.014;2023-02-15T00:12:33;100913.39;;;6.09;65.59
65010;BME280;51556;50.002;22.014;2023-02-15T00:14:58;100917.05;;;6.09;65.69
65010;BME280;51556;50.002;22.014;2023-02-15T00:17:27;100918.98;;;6.10;65.65
65010;BME280;51556;50.002;22.014;2023-02-15T00:19:53;100917.43;;;6.10;65.66
65010;BME280;51556;50.002;22.014;2023-02-15T00:22:19;100920.64;;;6.13;65.53
65010;BME280;51556;50.002;22.014;2023-02-15T00:24:45;100919.42;;;6.14;65.38
65010;BME280;51556;50.002;22.014;2023-02-15T00:27:10;100918.17;;;6.13;65.51
65010;BME280;51556;50.002;22.014;2023-02-15T00:29:35;100917.18;;;6.16;65.56
65010;BME280;51556;50.002;22.014;2023-02-15T00:32:01;100915.31;;;6.19;65.50
65010;BME280;51556;50.002;22.014;2023-02-15T00:34:27;100912.89;;;6.20;65.33
65010;BME280;51556;50.002;22.014;2023-02-15T00:36:53;100916.69;;;6.18;65.32
65010;BME280;51556;50.002;22.014;2023-02-15T00:39:18;100911.98;;;6.18;65.39
65010;BME280;51556;50.002;22.014;2023-02-15T00:41:44;100909.33;;;6.16;65.44
65010;BME280;51556;50.002;22.014;2023-02-15T00:44:11;100908.29;;;6.17;65.54
65010;BME280;51556;50.002;22.014;2023-02-15T00:46:36;100907.61;;;6.18;65.27
65010;BME280;51556;50.002;22.014;2023-02-15T00:49:02;100906.55;;;6.17;65.26
65010;BME280;51556;50.002;22.014;2023-02-15T00:51:28;100901.59;;;6.14;65.44
65010;BME280;51556;50.002;22.014;2023-02-15T00:53:54;100903.48;;;6.13;65.38
65010;BME280;51556;50.002;22.014;2023-02-15T00:56:20;100903.61;;;6.10;65.34
65010;BME280;51556;50.002;22.014;2023-02-15T00:58:45;100904.29;;;6.09;65.54
65010;BME280;51556;50.002;22.014;2023-02-15T01:01:16;100898.71;;;6.10;65.38
65010;BME280;51556;50.002;22.014;2023-02-15T01:03:42;100894.72;;;6.11;65.31
65010;BME280;51556;50.002;22.014;2023-02-15T01:06:08;100892.58;;;6.09;65.29
65010;BME280;51556;50.002;22.014;2023-02-15T01:08:33;100890.61;;;6.06;65.22
65010;BME280;51556;50.002;22.014;2023-02-15T01:11:07;100890.15;;;6.10;65.17
65010;BME280;51556;50.002;22.014;2023-02-15T01:13:33;100886.95;;;6.06;64.60
65010;BME280;51556;50.002;22.014;2023-02-15T01:15:59;100879.69;;;6.01;64.34
65010;BME280;51556;50.002;22.014;2023-02-15T01:18:25;100881.89;;;5.97;63.97
65010;BME280;51556;50.002;22.014;2023-02-15T01:20:52;100878.70;;;5.95;63.91
65010;BME280;51556;50.002;22.014;2023-02-15T01:23:17;100880.97;;;5.95;64.09
65010;BME280;51556;50.002;22.014;2023-02-15T01:25:43;100875.05;;;5.96;64.06
65010;BME280;51556;50.002;22.014;2023-02-15T01:28:08;100878.89;;;5.96;63.97
65010;BME280;51556;50.002;22.014;2023-02-15T01:30:33;100879.23;;;5.96;64.02
65010;BME280;51556;50.002;22.014;2023-02-15T01:32:59;100880.52;;;5.98;64.11
65010;BME280;51556;50.002;22.014;2023-02-15T01:35:26;100880.63;;;5.94;63.55
65010;BME280;51556;50.002;22.014;2023-02-15T01:37:52;100881.11;;;5.91;63.79
65010;BME280;51556;50.002;22.014;2023-02-15T01:40:18;100875.70;;;5.91;64.08
65010;BME280;51556;50.002;22.014;2023-02-15T01:42:44;100872.73;;;5.92;63.96
65010;BME280;51556;50.002;22.014;2023-02-15T01:45:31;100873.80;;;5.93;63.91
65010;BME280;51556;50.002;22.014;2023-02-15T01:48:19;100872.55;;;5.91;64.01
65010;BME280;51556;50.002;22.014;2023-02-15T01:50:55;100870.02;;;5.88;64.11
65010;BME280;51556;50.002;22.014;2023-02-15T01:53:24;100863.86;;;5.86;64.16
65010;BME280;51556;50.002;22.014;2023-02-15T01:55:55;100867.73;;;5.87;64.29
65010;BME280;51556;50.002;22.014;2023-02-15T01:58:25;100866.70;;;5.88;64.16
65010;BME280;51556;50.002;22.014;2023-02-15T02:00:51;100860.32;;;5.84;63.95
65010;BME280;51556;50.002;22.014;2023-02-15T02:03:21;100858.06;;;5.85;64.03
65010;BME280;51556;50.002;22.014;2023-02-15T02:05:47;100852.50;;;5.86;63.72
65010;BME280;51556;50.002;22.014;2023-02-15T02:08:13;100851.80;;;5.86;63.76
65010;BME280;51556;50.002;22.014;2023-02-15T02:10:38;100853.55;;;5.86;63.87
65010;BME280;51556;50.002;22.014;2023-02-15T02:13:05;100850.72;;;5.84;63.66
65010;BME280;51556;50.002;22.014;2023-02-15T02:29:51;100845.78;;;5.90;63.40
65010;BME280;51556;50.002;22.014;2023-02-15T02:32:48;100845.45;;;5.90;63.40
65010;BME280;51556;50.002;22.014;2023-02-15T02:37:52;100846.54;;;5.95;63.27
65010;BME280;51556;50.002;22.014;2023-02-15T02:40:36;100846.08;;;5.98;63.15
65010;BME280;51556;50.002;22.014;2023-02-15T02:43:21;100843.31;;;6.00;63.21
65010;BME280;51556;50.002;22.014;2023-02-15T02:45:57;100848.52;;;5.97;62.83
65010;BME280;51556;50.002;22.014;2023-02-15T02:48:26;100846.89;;;5.94;62.67
65010;BME280;51556;50.002;22.014;2023-02-15T02:50:53;100845.99;;;5.92;62.70
65010;BME280;51556;50.002;22.014;2023-02-15T02:53:18;100849.44;;;5.89;62.47
65010;BME280;51556;50.002;22.014;2023-02-15T02:55:47;100851.80;;;5.86;62.59
65010;BME280;51556;50.002;22.014;2023-02-15T02:58:35;100855.59;;;5.83;62.50
65010;BME280;51556;50.002;22.014;2023-02-15T03:01:15;100853.98;;;5.82;62.54
65010;BME280;51556;50.002;22.014;2023-02-15T03:03:49;100857.48;;;5.81;62.55
65010;BME280;51556;50.002;22.014;2023-02-15T03:06:19;100856.54;;;5.78;62.68
65010;BME280;51556;50.002;22.014;2023-02-15T03:08:48;100855.09;;;5.75;62.55
65010;BME280;51556;50.002;22.014;2023-02-15T03:11:16;100855.94;;;5.74;62.76
65010;BME280;51556;50.002;22.014;2023-02-15T03:13:43;100855.22;;;5.72;62.95
65010;BME280;51556;50.002;22.014;2023-02-15T03:16:11;100852.71;;;5.69;62.73
65010;BME280;51556;50.002;22.014;2023-02-15T03:19:01;100853.92;;;5.68;62.60
65010;BME280;51556;50.002;22.014;2023-02-15T03:21:39;100853.77;;;5.69;62.18
65010;BME280;51556;50.002;22.014;2023-02-15T03:24:10;100853.67;;;5.65;62.10
65010;BME280;51556;50.002;22.014;2023-02-15T03:26:39;100854.17;;;5.64;61.91
65010;BME280;51556;50.002;22.014;2023-02-15T03:29:06;100850.48;;;5.62;61.84
65010;BME280;51556;50.002;22.014;2023-02-15T03:31:38;100849.86;;;5.66;61.75
65010;BME280;51556;50.002;22.014;2023-02-15T03:34:08;100851.14;;;5.69;61.56
65010;BME280;51556;50.002;22.014;2023-02-15T03:36:46;100846.39;;;5.67;61.67
65010;BME280;51556;50.002;22.014;2023-02-15T03:39:30;100847.16;;;5.62;61.11
65010;BME280;51556;50.002;22.014;2023-02-15T03:42:04;100847.66;;;5.61;61.45
65010;BME280;51556;50.002;22.014;2023-02-15T03:44:36;100845.88;;;5.59;61.34
65010;BME280;51556;50.002;22.014;2023-02-15T03:47:09;100847.08;;;5.57;61.50
65010;BME280;51556;50.002;22.014;2023-02-15T03:49:46;100846.55;;;5.58;61.38
65010;BME280;51556;50.002;22.014;2023-02-15T03:52:15;100847.29;;;5.59;61.29
65010;BME280;51556;50.002;22.014;2023-02-15T03:54:42;100848.33;;;5.59;61.07
65010;BME280;51556;50.002;22.014;2023-02-15T03:57:22;100842.54;;;5.58;61.23
65010;BME280;51556;50.002;22.014;2023-02-15T04:05:22;100841.97;;;5.54;61.26
65010;BME280;51556;50.002;22.014;2023-02-15T04:07:47;100840.77;;;5.55;61.39
65010;BME280;51556;50.002;22.014;2023-02-15T04:10:13;100843.23;;;5.56;61.57
65010;BME280;51556;50.002;22.014;2023-02-15T04:12:56;100836.89;;;5.53;61.48
65010;BME280;51556;50.002;22.014;2023-02-15T04:15:22;100837.10;;;5.55;61.66
65010;BME280;51556;50.002;22.014;2023-02-15T04:18:06;100840.45;;;5.56;61.92
65010;BME280;51556;50.002;22.014;2023-02-15T04:20:31;100841.14;;;5.58;61.88
65010;BME280;51556;50.002;22.014;2023-02-15T04:23:15;100838.56;;;5.60;62.11
65010;BME280;51556;50.002;22.014;2023-02-15T04:26:03;100836.13;;;5.61;62.05
65010;BME280;51556;50.002;22.014;2023-02-15T04:28:32;100834.60;;;5.63;61.86
65010;BME280;51556;50.002;22.014;2023-02-15T04:30:57;100834.40;;;5.62;61.80
65010;BME280;51556;50.002;22.014;2023-02-15T04:33:23;100833.75;;;5.64;61.97
65010;BME280;51556;50.002;22.014;2023-02-15T04:35:48;100827.33;;;5.66;61.91
65010;BME280;51556;50.002;22.014;2023-02-15T04:38:14;100823.64;;;5.65;61.77
65010;BME280;51556;50.002;22.014;2023-02-15T04:40:39;100823.79;;;5.64;61.49
65010;BME280;51556;50.002;22.014;2023-02-15T04:43:05;100827.04;;;5.61;60.73
65010;BME280;51556;50.002;22.014;2023-02-15T04:45:30;100825.63;;;5.49;60.25
65010;BME280;51556;50.002;22.014;2023-02-15T04:47:55;100827.46;;;5.35;60.47
65010;BME280;51556;50.002;22.014;2023-02-15T04:50:21;100822.52;;;5.33;60.82
65010;BME280;51556;50.002;22.014;2023-02-15T04:52:46;100825.60;;;5.38;60.85
65010;BME280;51556;50.002;22.014;2023-02-15T04:55:12;100823.98;;;5.45;61.02
65010;BME280;51556;50.002;22.014;2023-02-15T04:57:39;100823.34;;;5.48;60.84
65010;BME280;51556;50.002;22.014;2023-02-15T05:00:05;100822.00;;;5.51;60.91
65010;BME280;51556;50.002;22.014;2023-02-15T05:02:30;100822.41;;;5.54;60.84
65010;BME280;51556;50.002;22.014;2023-02-15T05:04:55;100824.86;;;5.54;61.00
65010;BME280;51556;50.002;22.014;2023-02-15T05:07:21;100827.51;;;5.56;61.08
65010;BME280;51556;50.002;22.014;2023-02-15T05:09:46;100826.30;;;5.57;61.04
65010;BME280;51556;50.002;22.014;2023-02-15T05:12:12;100829.61;;;5.57;60.93
65010;BME280;51556;50.002;22.014;2023-02-15T05:14:37;100831.89;;;5.59;61.03
65010;BME280;51556;50.002;22.014;2023-02-15T05:17:02;100833.52;;;5.62;60.85
65010;BME280;51556;50.002;22.014;2023-02-15T05:19:30;100834.56;;;5.61;60.74
65010;BME280;51556;50.002;22.014;2023-02-15T05:21:55;100832.27;;;5.60;60.74
65010;BME280;51556;50.002;22.014;2023-02-15T05:24:21;100836.41;;;5.56;60.92
65010;BME280;51556;50.002;22.014;2023-02-15T05:27:05;100840.39;;;5.54;60.65
65010;BME280;51556;50.002;22.014;2023-02-15T05:29:49;100840.52;;;5.52;61.04
65010;BME280;51556;50.002;22.014;2023-02-15T05:32:14;100840.64;;;5.48;60.94
65010;BME280;51556;50.002;22.014;2023-02-15T05:34:40;100835.92;;;5.48;61.07
65010;BME280;51556;50.002;22.014;2023-02-15T05:37:05;100838.52;;;5.48;61.19
65010;BME280;51556;50.002;22.014;2023-02-15T05:39:32;100837.38;;;5.51;61.11
65010;BME280;51556;50.002;22.014;2023-02-15T05:41:59;100843.04;;;5.55;61.27
65010;BME280;51556;50.002;22.014;2023-02-15T05:44:24;100843.94;;;5.56;61.28
65010;BME280;51556;50.002;22.014;2023-02-15T05:46:50;100846.03;;;5.58;61.26
65010;BME280;51556;50.002;22.014;2023-02-15T05:49:15;100847.13;;;5.61;61.35
65010;BME280;51556;50.002;22.014;2023-02-15T05:51:40;100847.55;;;5.64;61.37
65010;BME280;51556;50.002;22.014;2023-02-15T05:54:06;100844.96;;;5.66;61.27
65010;BME280;51556;50.002;22.014;2023-02-15T05:56:31;100845.29;;;5.65;61.15
65010;BME280;51556;50.002;22.014;2023-02-15T05:58:57;100844.73;;;5.63;61.14
65010;BME280;51556;50.002;22.014;2023-02-15T06:01:22;100845.98;;;5.65;61.35
65010;BME280;51556;50.002;22.014;2023-02-15T06:03:48;100845.27;;;5.64;61.08
65010;BME280;51556;50.002;22.014;2023-02-15T06:06:14;100850.20;;;5.56;60.90
65010;BME280;51556;50.002;22.014;2023-02-15T06:08:39;100853.42;;;5.50;61.00
65010;BME280;51556;50.002;22.014;2023-02-15T06:11:05;100856.02;;;5.49;61.23
65010;BME280;51556;50.002;22.014;2023-02-15T06:13:31;100855.66;;;5.48;61.28
65010;BME280;51556;50.002;22.014;2023-02-15T06:15:57;100856.52;;;5.48;61.24
65010;BME280;51556;50.002;22.014;2023-02-15T06:18:22;100859.67;;;5.48;61.27
65010;BME280;51556;50.002;22.014;2023-02-15T06:20:48;100861.10;;;5.49;61.43
65010;BME280;51556;50.002;22.014;2023-02-15T06:23:14;100863.74;;;5.51;61.31
65010;BME280;51556;50.002;22.014;2023-02-15T06:25:39;100865.75;;;5.47;61.25
65010;BME280;51556;50.002;22.014;2023-02-15T06:28:05;100871.12;;;5.44;61.40
65010;BME280;51556;50.002;22.014;2023-02-15T06:30:31;100872.00;;;5.45;61.05
65010;BME280;51556;50.002;22.014;2023-02-15T06:32:56;100870.23;;;5.43;61.00
65010;BME280;51556;50.002;22.014;2023-02-15T06:35:22;100872.55;;;5.36;61.07
65010;BME280;51556;50.002;22.014;2023-02-15T06:37:47;100871.80;;;5.34;61.64
65010;BME280;51556;50.002;22.014;2023-02-15T06:40:13;100874.48;;;5.37;61.51
65010;BME280;51556;50.002;22.014;2023-02-15T06:42:39;100871.80;;;5.43;61.43
65010;BME280;51556;50.002;22.014;2023-02-15T06:45:06;100876.27;;;5.48;61.71
65010;BME280;51556;50.002;22.014;2023-02-15T06:47:31;100876.05;;;5.55;61.34
65010;BME280;51556;50.002;22.014;2023-02-15T06:49:57;100877.19;;;5.61;61.50
65010;BME280;51556;50.002;22.014;2023-02-15T06:52:22;100877.45;;;5.66;61.43
65010;BME280;51556;50.002;22.014;2023-02-15T06:54:48;100874.27;;;5.73;61.04
65010;BME280;51556;50.002;22.014;2023-02-15T06:57:13;100871.22;;;5.78;61.00
65010;BME280;51556;50.002;22.014;2023-02-15T06:59:39;100866.00;;;5.79;60.95
65010;BME280;51556;50.002;22.014;2023-02-15T07:02:04;100872.63;;;5.79;60.71
65010;BME280;51556;50.002;22.014;2023-02-15T07:04:29;100873.33;;;5.79;60.90
65010;BME280;51556;50.002;22.014;2023-02-15T07:06:55;100870.98;;;5.84;60.83
65010;BME280;51556;50.002;22.014;2023-02-15T07:09:21;100867.73;;;5.88;60.65
65010;BME280;51556;50.002;22.014;2023-02-15T07:11:47;100867.94;;;5.88;60.52
65010;BME280;51556;50.002;22.014;2023-02-15T07:14:31;100872.09;;;5.87;60.25
65010;BME280;51556;50.002;22.014;2023-02-15T07:16:57;100866.21;;;5.81;60.25
65010;BME280;51556;50.002;22.014;2023-02-15T07:19:22;100866.54;;;5.80;60.21
65010;BME280;51556;50.002;22.014;2023-02-15T07:21:47;100865.52;;;5.82;60.42
65010;BME280;51556;50.002;22.014;2023-02-15T07:24:13;100868.54;;;5.85;60.37
65010;BME280;51556;50.002;22.014;2023-02-15T07:26:39;100864.83;;;5.89;59.90
65010;BME280;51556;50.002;22.014;2023-02-15T07:29:04;100866.34;;;5.87;59.35
65010;BME280;51556;50.002;22.014;2023-02-15T07:31:30;100865.67;;;5.80;59.15
65010;BME280;51556;50.002;22.014;2023-02-15T07:33:55;100864.86;;;5.74;58.81
65010;BME280;51556;50.002;22.014;2023-02-15T07:36:21;100866.55;;;5.62;59.10
65010;BME280;51556;50.002;22.014;2023-02-15T07:38:46;100865.83;;;5.61;59.06
65010;BME280;51556;50.002;22.014;2023-02-15T07:41:13;100863.41;;;5.62;58.89
65010;BME280;51556;50.002;22.014;2023-02-15T07:43:41;100866.40;;;5.63;58.88
65010;BME280;51556;50.002;22.014;2023-02-15T07:46:12;100869.13;;;5.69;58.66
65010;BME280;51556;50.002;22.014;2023-02-15T07:48:39;100863.77;;;5.73;58.62
65010;BME280;51556;50.002;22.014;2023-02-15T07:51:06;100863.71;;;5.78;58.40
65010;BME280;51556;50.002;22.014;2023-02-15T07:53:33;100866.43;;;5.74;58.23
65010;BME280;51556;50.002;22.014;2023-02-15T07:56:04;100858.32;;;5.70;58.19
65010;BME280;51556;50.002;22.014;2023-02-15T07:58:30;100855.44;;;5.75;58.30
65010;BME280;51556;50.002;22.014;2023-02-15T08:01:14;100851.19;;;5.82;58.16
65010;BME280;51556;50.002;22.014;2023-02-15T08:03:40;100848.23;;;5.82;57.86
65010;BME280;51556;50.002;22.014;2023-02-15T08:06:06;100847.52;;;5.72;57.82
65010;BME280;51556;50.002;22.014;2023-02-15T08:08:33;100848.42;;;5.64;58.13
65010;BME280;51556;50.002;22.014;2023-02-15T08:13:58;100842.02;;;5.78;57.92
65010;BME280;51556;50.002;22.014;2023-02-15T08:16:55;100844.80;;;5.86;58.04
65010;BME280;51556;50.002;22.014;2023-02-15T08:19:25;100847.25;;;5.95;58.00
65010;BME280;51556;50.002;22.014;2023-02-15T08:21:59;100842.48;;;6.03;57.79
65010;BME280;51556;50.002;22.014;2023-02-15T08:24:30;100843.11;;;6.09;57.70
65010;BME280;51556;50.002;22.014;2023-02-15T08:26:57;100838.95;;;6.12;57.78
65010;BME280;51556;50.002;22.014;2023-02-15T08:29:26;100835.71;;;6.16;57.57
65010;BME280;51556;50.002;22.014;2023-02-15T08:32:00;100835.73;;;6.18;57.15
65010;BME280;51556;50.002;22.014;2023-02-15T08:34:31;100832.67;;;6.23;57.51
65010;BME280;51556;50.002;22.014;2023-02-15T08:36:57;100834.85;;;6.28;57.38
65010;BME280;51556;50.002;22.014;2023-02-15T08:39:22;100834.66;;;6.27;56.56
65010;BME280;51556;50.002;22.014;2023-02-15T08:41:48;100836.71;;;6.23;56.67
65010;BME280;51556;50.002;22.014;2023-02-15T08:44:15;100836.68;;;6.22;56.41
65010;BME280;51556;50.002;22.014;2023-02-15T08:46:43;100837.09;;;6.15;56.42
65010;BME280;51556;50.002;22.014;2023-02-15T08:49:12;100834.63;;;6.14;56.93
65010;BME280;51556;50.002;22.014;2023-02-15T08:51:38;100834.91;;;6.11;56.38
65010;BME280;51556;50.002;22.014;2023-02-15T08:54:08;100830.16;;;6.09;56.95
65010;BME280;51556;50.002;22.014;2023-02-15T08:56:39;100833.02;;;6.12;56.74
65010;BME280;51556;50.002;22.014;2023-02-15T08:59:06;100832.91;;;6.16;56.98
65010;BME280;51556;50.002;22.014;2023-02-15T09:01:34;100833.20;;;6.23;57.08
65010;BME280;51556;50.002;22.014;2023-02-15T09:04:09;100827.33;;;6.28;57.02
65010;BME280;51556;50.002;22.014;2023-02-15T09:06:36;100828.04;;;6.28;56.79
65010;BME280;51556;50.002;22.014;2023-02-15T09:09:02;100829.47;;;6.30;56.75
65010;BME280;51556;50.002;22.014;2023-02-15T09:11:30;100826.85;;;6.30;56.49
65010;BME280;51556;50.002;22.014;2023-02-15T09:13:57;100828.95;;;6.31;56.63
65010;BME280;51556;50.002;22.014;2023-02-15T09:16:24;100827.24;;;6.35;56.47
65010;BME280;51556;50.002;22.014;2023-02-15T09:18:54;100825.52;;;6.36;56.30
65010;BME280;51556;50.002;22.014;2023-02-15T09:21:22;100822.44;;;6.41;56.52
65010;BME280;51556;50.002;22.014;2023-02-15T09:23:50;100822.48;;;6.45;56.40
65010;BME280;51556;50.002;22.014;2023-02-15T09:26:19;100821.30;;;6.46;56.02
65010;BME280;51556;50.002;22.014;2023-02-15T09:28:46;100820.65;;;6.38;55.82
65010;BME280;51556;50.002;22.014;2023-02-15T09:31:16;100815.51;;;6.34;56.19
65010;BME280;51556;50.002;22.014;2023-02-15T09:33:44;100814.67;;;6.36;56.30
65010;BME280;51556;50.002;22.014;2023-02-15T09:36:18;100812.21;;;6.36;55.89
65010;BME280;51556;50.002;22.014;2023-02-15T09:38:50;100809.44;;;6.37;56.22
65010;BME280;51556;50.002;22.014;2023-02-15T09:54:42;100793.73;;;6.52;56.23
65010;BME280;51556;50.002;22.014;2023-02-15T09:57:29;100788.06;;;6.58;56.46
65010;BME280;51556;50.002;22.014;2023-02-15T10:03:44;100783.49;;;6.86;56.37
65010;BME280;51556;50.002;22.014;2023-02-15T10:06:42;100782.04;;;6.94;55.98
65010;BME280;51556;50.002;22.014;2023-02-15T10:09:25;100781.23;;;7.00;56.02
65010;BME280;51556;50.002;22.014;2023-02-15T10:17:39;100767.13;;;7.25;55.91
65010;BME280;51556;50.002;22.014;2023-02-15T10:20:14;100764.32;;;7.41;55.16
65010;BME280;51556;50.002;22.014;2023-02-15T10:23:22;100752.64;;;7.50;55.07
65010;BME280;51556;50.002;22.014;2023-02-15T10:28:55;100748.80;;;7.51;54.00
65010;BME280;51556;50.002;22.014;2023-02-15T10:31:27;100747.76;;;7.51;53.66
65010;BME280;51556;50.002;22.014;2023-02-15T10:42:17;100730.98;;;7.77;53.79
65010;BME280;51556;50.002;22.014;2023-02-15T10:50:55;100721.96;;;8.19;53.47
65010;BME280;51556;50.002;22.014;2023-02-15T11:01:53;100710.30;;;8.73;52.52
65010;BME280;51556;50.002;22.014;2023-02-15T11:04:29;100699.12;;;8.88;51.97
65010;BME280;51556;50.002;22.014;2023-02-15T11:07:02;100703.18;;;9.02;51.30
65010;BME280;51556;50.002;22.014;2023-02-15T11:09:41;100692.67;;;9.13;50.81
65010;BME280;51556;50.002;22.014;2023-02-15T11:12:12;100691.10;;;9.28;51.24
65010;BME280;51556;50.002;22.014;2023-02-15T11:15:04;100693.39;;;9.41;50.50
65010;BME280;51556;50.002;22.014;2023-02-15T11:17:41;100693.05;;;9.56;50.58
65010;BME280;51556;50.002;22.014;2023-02-15T11:20:15;100688.63;;;9.68;49.38
65010;BME280;51556;50.002;22.014;2023-02-15T11:22:47;100690.03;;;9.78;49.12
65010;BME280;51556;50.002;22.014;2023-02-15T11:25:33;100693.02;;;9.93;49.02
65010;BME280;51556;50.002;22.014;2023-02-15T11:28:03;100686.67;;;9.97;47.57
65010;BME280;51556;50.002;22.014;2023-02-15T11:30:40;100678.92;;;9.99;47.82
65010;BME280;51556;50.002;22.014;2023-02-15T11:33:20;100677.52;;;10.01;48.02
65010;BME280;51556;50.002;22.014;2023-02-15T11:36:08;100673.42;;;10.14;48.28
65010;BME280;51556;50.002;22.014;2023-02-15T11:38:36;100673.41;;;10.31;47.80
65010;BME280;51556;50.002;22.014;2023-02-15T11:41:12;100664.88;;;10.49;47.40
65010;BME280;51556;50.002;22.014;2023-02-15T11:46:05;100669.40;;;10.60;45.99
65010;BME280;51556;50.002;22.014;2023-02-15T11:48:32;100670.08;;;10.69;46.69
65010;BME280;51556;50.002;22.014;2023-02-15T11:50:59;100665.87;;;10.94;46.21
65010;BME280;51556;50.002;22.014;2023-02-15T11:53:28;100660.85;;;11.29;45.72
65010;BME280;51556;50.002;22.014;2023-02-15T11:55:57;100655.27;;;11.65;44.73
65010;BME280;51556;50.002;22.014;2023-02-15T11:58:48;100654.10;;;11.96;44.43
65010;BME280;51556;50.002;22.014;2023-02-15T12:01:39;100649.66;;;12.15;43.45
65010;BME280;51556;50.002;22.014;2023-02-15T12:04:18;100643.46;;;12.17;42.79
65010;BME280;51556;50.002;22.014;2023-02-15T12:09:33;100638.00;;;12.44;41.95
65010;BME280;51556;50.002;22.014;2023-02-15T12:14:51;100633.20;;;13.09;42.89
65010;BME280;51556;50.002;22.014;2023-02-15T12:17:18;100627.80;;;13.37;41.28
65010;BME280;51556;50.002;22.014;2023-02-15T12:19:46;100621.20;;;13.51;39.93
65010;BME280;51556;50.002;22.014;2023-02-15T12:22:25;100615.86;;;13.52;40.24
65010;BME280;51556;50.002;22.014;2023-02-15T12:24:56;100614.65;;;13.80;40.11
65010;BME280;51556;50.002;22.014;2023-02-15T12:27:28;100607.40;;;14.07;40.59
65010;BME280;51556;50.002;22.014;2023-02-15T12:30:03;100603.30;;;14.34;38.88
65010;BME280;51556;50.002;22.014;2023-02-15T12:32:48;100598.06;;;14.56;38.73
65010;BME280;51556;50.002;22.014;2023-02-15T12:37:55;100598.30;;;14.26;38.08
65010;BME280;51556;50.002;22.014;2023-02-15T12:40:26;100596.55;;;14.35;37.90
65010;BME280;51556;50.002;22.014;2023-02-15T12:42:53;100590.02;;;14.51;36.96
65010;BME280;51556;50.002;22.014;2023-02-15T12:45:22;100584.11;;;14.77;37.58
65010;BME280;51556;50.002;22.014;2023-02-15T12:48:13;100580.92;;;14.92;36.72
65010;BME280;51556;50.002;22.014;2023-02-15T12:50:44;100581.59;;;14.63;37.05
65010;BME280;51556;50.002;22.014;2023-02-15T12:53:15;100576.33;;;14.69;38.27
65010;BME280;51556;50.002;22.014;2023-02-15T12:55:55;100576.23;;;14.96;38.16
65010;BME280;51556;50.002;22.014;2023-02-15T12:58:23;100573.67;;;15.20;36.97
65010;BME280;51556;50.002;22.014;2023-02-15T13:03:33;100570.54;;;15.52;36.59
65010;BME280;51556;50.002;22.014;2023-02-15T13:06:01;100563.52;;;15.69;37.40
65010;BME280;51556;50.002;22.014;2023-02-15T13:08:32;100564.92;;;15.89;35.67
65010;BME280;51556;50.002;22.014;2023-02-15T13:11:09;100558.19;;;16.07;35.12
65010;BME280;51556;50.002;22.014;2023-02-15T13:13:51;100548.14;;;16.23;35.07
65010;BME280;51556;50.002;22.014;2023-02-15T13:16:24;100547.90;;;16.36;33.54
65010;BME280;51556;50.002;22.014;2023-02-15T13:18:57;100552.30;;;16.44;33.17
65010;BME280;51556;50.002;22.014;2023-02-15T13:21:29;100549.77;;;16.39;34.18
65010;BME280;51556;50.002;22.014;2023-02-15T13:24:04;100546.75;;;16.68;33.79
65010;BME280;51556;50.002;22.014;2023-02-15T13:26:32;100542.33;;;17.16;33.37
65010;BME280;51556;50.002;22.014;2023-02-15T13:29:15;100539.85;;;17.62;32.94
65010;BME280;51556;50.002;22.014;2023-02-15T13:31:44;100539.49;;;18.02;32.41
65010;BME280;51556;50.002;22.014;2023-02-15T13:34:17;100533.05;;;18.21;31.64
65010;BME280;51556;50.002;22.014;2023-02-15T13:37:08;100531.96;;;18.22;30.22
65010;BME280;51556;50.002;22.014;2023-02-15T13:42:19;100528.40;;;18.17;30.56
65010;BME280;51556;50.002;22.014;2023-02-15T13:44:54;100523.65;;;18.01;30.79
65010;BME280;51556;50.002;22.014;2023-02-15T13:47:50;100523.52;;;17.65;30.41
65010;BME280;51556;50.002;22.014;2023-02-15T13:55:37;100520.70;;;18.04;31.17
65010;BME280;51556;50.002;22.014;2023-02-15T13:58:17;100520.20;;;18.17;30.28
65010;BME280;51556;50.002;22.014;2023-02-15T14:09:20;100521.00;;;17.91;29.69
65010;BME280;51556;50.002;22.014;2023-02-15T14:18:19;100523.77;;;17.49;30.35
65010;BME280;51556;50.002;22.014;2023-02-15T14:26:08;100517.92;;;16.97;30.99
65010;BME280;51556;50.002;22.014;2023-02-15T14:28:58;100516.83;;;16.76;31.51
65010;BME280;51556;50.002;22.014;2023-02-15T14:31:28;100516.23;;;16.66;31.91
65010;BME280;51556;50.002;22.014;2023-02-15T14:33:56;100512.44;;;16.57;31.79
65010;BME280;51556;50.002;22.014;2023-02-15T14:36:23;100508.45;;;16.47;31.92
65010;BME280;51556;50.002;22.014;2023-02-15T14:42:23;100504.61;;;16.11;32.19
65010;BME280;51556;50.002;22.014;2023-02-15T14:45:15;100502.63;;;16.00;32.36
65010;BME280;51556;50.002;22.014;2023-02-15T14:47:55;100502.15;;;15.74;32.35
65010;BME280;51556;50.002;22.014;2023-02-15T14:50:37;100503.71;;;15.43;33.76
65010;BME280;51556;50.002;22.014;2023-02-15T14:53:36;100503.03;;;15.22;34.14
65010;BME280;51556;50.002;22.014;2023-02-15T15:01:28;100499.15;;;14.42;34.77
65010;BME280;51556;50.002;22.014;2023-02-15T15:03:58;100498.77;;;14.19;35.14
65010;BME280;51556;50.002;22.014;2023-02-15T15:06:32;100496.65;;;13.95;35.16
65010;BME280;51556;50.002;22.014;2023-02-15T15:09:08;100496.62;;;13.62;35.39